sensor_id;sensor_type;location;lat;lon;timestamp;P1;durP1;ratioP1;P2;durP2;ratioP2
84144;SDS011;74264;48.988;12.040;2024-03-17T00:01:01;16.25;;;7.88;;
84144;SDS011;74264;48.988;12.040;2024-03-17T00:03:28;25.05;;;10.63;;
84144;SDS011;74264;48.988;12.040;2024-03-17T00:05:57;15.75;;;8.68;;
84144;SDS011;74264;48.988;12.040;2024-03-17T00:08:26;18.30;;;8.85;;
84144;SDS011;74264;48.988;12.040;2024-03-17T00:10:52;20.77;;;9.38;;
84144;SDS011;74264;48.988;12.040;2024-03-17T00:13:20;21.13;;;9.43;;
84144;SDS011;74264;48.988;12.040;2024-03-17T00:15:48;23.23;;;9.63;;
84144;SDS011;74264;48.988;12.040;2024-03-17T00:18:14;18.10;;;9.10;;
84144;SDS011;74264;48.988;12.040;2024-03-17T00:20:39;18.05;;;9.18;;
84144;SDS011;74264;48.988;12.040;2024-03-17T00:23:05;16.88;;;8.90;;
84144;SDS011;74264;48.988;12.040;2024-03-17T00:25:34;21.90;;;9.02;;
84144;SDS011;74264;48.988;12.040;2024-03-17T00:28:01;14.95;;;7.97;;
84144;SDS011;74264;48.988;12.040;2024-03-17T00:30:27;16.33;;;8.10;;
84144;SDS011;74264;48.988;12.040;2024-03-17T00:32:53;12.23;;;8.00;;
84144;SDS011;74264;48.988;12.040;2024-03-17T00:35:18;16.80;;;9.02;;
84144;SDS011;74264;48.988;12.040;2024-03-17T00:37:47;14.68;;;8.32;;
84144;SDS011;74264;48.988;12.040;2024-03-17T00:40:14;15.13;;;8.05;;
84144;SDS011;74264;48.988;12.040;2024-03-17T00:42:41;15.20;;;8.05;;
84144;SDS011;74264;48.988;12.040;2024-03-17T00:45:08;14.13;;;7.10;;
84144;SDS011;74264;48.988;12.040;2024-03-17T00:47:35;14.63;;;7.30;;
84144;SDS011;74264;48.988;12.040;2024-03-17T00:50:01;17.02;;;6.35;;
84144;SDS011;74264;48.988;12.040;2024-03-17T00:52:27;10.73;;;6.93;;
84144;SDS011;74264;48.988;12.040;2024-03-17T00:54:52;13.30;;;7.93;;
84144;SDS011;74264;48.988;12.040;2024-03-17T00:57:19;17.38;;;8.35;;
84144;SDS011;74264;48.988;12.040;2024-03-17T00:59:44;19.60;;;10.00;;
84144;SDS011;74264;48.988;12.040;2024-03-17T01:02:10;18.83;;;9.50;;
84144;SDS011;74264;48.988;12.040;2024-03-17T01:04:39;17.92;;;9.63;;
84144;SDS011;74264;48.988;12.040;2024-03-17T01:07:05;20.05;;;8.82;;
84144;SDS011;74264;48.988;12.040;2024-03-17T01:09:31;23.30;;;9.60;;
84144;SDS011;74264;48.988;12.040;2024-03-17T01:11:56;26.40;;;10.95;;
84144;SDS011;74264;48.988;12.040;2024-03-17T01:14:22;22.38;;;8.70;;
84144;SDS011;74264;48.988;12.040;2024-03-17T01:16:50;21.38;;;8.77;;
84144;SDS011;74264;48.988;12.040;2024-03-17T01:19:16;17.30;;;8.32;;
84144;SDS011;74264;48.988;12.040;2024-03-17T01:21:41;16.05;;;7.63;;
84144;SDS011;74264;48.988;12.040;2024-03-17T01:24:07;12.20;;;6.70;;
84144;SDS011;74264;48.988;12.040;2024-03-17T01:26:32;26.50;;;9.60;;
84144;SDS011;74264;48.988;12.040;2024-03-17T01:28:58;15.10;;;7.25;;
84144;SDS011;74264;48.988;12.040;2024-03-17T01:31:24;14.57;;;7.00;;
84144;SDS011;74264;48.988;12.040;2024-03-17T01:33:50;28.58;;;9.95;;
84144;SDS011;74264;48.988;12.040;2024-03-17T01:36:16;30.35;;;10.15;;
84144;SDS011;74264;48.988;12.040;2024-03-17T01:38:41;25.70;;;10.15;;
84144;SDS011;74264;48.988;12.040;2024-03-17T01:41:07;43.90;;;15.10;;
84144;SDS011;74264;48.988;12.040;2024-03-17T01:43:33;31.73;;;12.02;;
84144;SDS011;74264;48.988;12.040;2024-03-17T01:45:58;21.00;;;9.75;;
84144;SDS011;74264;48.988;12.040;2024-03-17T01:48:25;22.23;;;9.23;;
84144;SDS011;74264;48.988;12.040;2024-03-17T01:50:52;23.23;;;10.00;;
84144;SDS011;74264;48.988;12.040;2024-03-17T01:53:20;20.38;;;8.63;;
84144;SDS011;74264;48.988;12.040;2024-03-17T01:55:49;31.85;;;10.40;;
84144;SDS011;74264;48.988;12.040;2024-03-17T01:58:15;28.70;;;10.75;;
84144;SDS011;74264;48.988;12.040;2024-03-17T02:00:42;19.55;;;9.65;;
84144;SDS011;74264;48.988;12.040;2024-03-17T02:03:08;12.73;;;7.38;;
84144;SDS011;74264;48.988;12.040;2024-03-17T02:05:35;19.77;;;8.77;;
84144;SDS011;74264;48.988;12.040;2024-03-17T02:08:03;27.25;;;8.80;;
84144;SDS011;74264;48.988;12.040;2024-03-17T02:10:32;28.38;;;9.68;;
84144;SDS011;74264;48.988;12.040;2024-03-17T02:13:00;17.88;;;9.15;;
84144;SDS011;74264;48.988;12.040;2024-03-17T02:15:26;21.00;;;9.73;;
84144;SDS011;74264;48.988;12.040;2024-03-17T02:17:53;28.35;;;10.57;;
84144;SDS011;74264;48.988;12.040;2024-03-17T02:20:19;25.42;;;10.30;;
84144;SDS011;74264;48.988;12.040;2024-03-17T02:22:44;17.50;;;8.85;;
84144;SDS011;74264;48.988;12.040;2024-03-17T02:25:10;20.75;;;8.38;;
84144;SDS011;74264;48.988;12.040;2024-03-17T02:27:36;15.43;;;8.23;;
84144;SDS011;74264;48.988;12.040;2024-03-17T02:30:05;21.58;;;8.80;;
84144;SDS011;74264;48.988;12.040;2024-03-17T02:32:34;14.57;;;7.68;;
84144;SDS011;74264;48.988;12.040;2024-03-17T02:35:00;16.95;;;8.38;;
84144;SDS011;74264;48.988;12.040;2024-03-17T02:37:26;17.15;;;7.47;;
84144;SDS011;74264;48.988;12.040;2024-03-17T02:39:52;17.80;;;8.55;;
84144;SDS011;74264;48.988;12.040;2024-03-17T02:42:18;24.58;;;9.13;;
84144;SDS011;74264;48.988;12.040;2024-03-17T02:44:43;17.08;;;9.27;;
84144;SDS011;74264;48.988;12.040;2024-03-17T02:47:09;16.23;;;8.38;;
84144;SDS011;74264;48.988;12.040;2024-03-17T02:49:35;15.57;;;7.38;;
84144;SDS011;74264;48.988;12.040;2024-03-17T02:52:09;16.38;;;7.80;;
84144;SDS011;74264;48.988;12.040;2024-03-17T02:54:37;20.77;;;8.40;;
84144;SDS011;74264;48.988;12.040;2024-03-17T02:57:03;13.90;;;7.35;;
84144;SDS011;74264;48.988;12.040;2024-03-17T02:59:30;14.95;;;6.95;;
84144;SDS011;74264;48.988;12.040;2024-03-17T03:01:56;14.77;;;7.53;;
84144;SDS011;74264;48.988;12.040;2024-03-17T03:04:22;21.75;;;9.07;;
84144;SDS011;74264;48.988;12.040;2024-03-17T03:06:48;15.45;;;8.25;;
84144;SDS011;74264;48.988;12.040;2024-03-17T03:09:13;19.13;;;7.97;;
84144;SDS011;74264;48.988;12.040;2024-03-17T03:11:41;14.60;;;7.68;;
84144;SDS011;74264;48.988;12.040;2024-03-17T03:14:07;9.68;;;6.47;;
84144;SDS011;74264;48.988;12.040;2024-03-17T03:16:32;10.75;;;6.20;;
84144;SDS011;74264;48.988;12.040;2024-03-17T03:18:58;10.13;;;5.68;;
84144;SDS011;74264;48.988;12.040;2024-03-17T03:21:24;13.43;;;6.40;;
84144;SDS011;74264;48.988;12.040;2024-03-17T03:23:51;15.70;;;6.90;;
84144;SDS011;74264;48.988;12.040;2024-03-17T03:26:17;25.65;;;9.07;;
84144;SDS011;74264;48.988;12.040;2024-03-17T03:28:43;22.77;;;8.52;;
84144;SDS011;74264;48.988;12.040;2024-03-17T03:31:12;33.72;;;10.10;;
84144;SDS011;74264;48.988;12.040;2024-03-17T03:33:42;20.25;;;7.93;;
84144;SDS011;74264;48.988;12.040;2024-03-17T03:36:11;44.42;;;10.80;;
84144;SDS011;74264;48.988;12.040;2024-03-17T03:38:37;37.97;;;10.52;;
84144;SDS011;74264;48.988;12.040;2024-03-17T03:41:10;111.47;;;15.30;;
84144;SDS011;74264;48.988;12.040;2024-03-17T03:43:37;28.15;;;10.65;;
84144;SDS011;74264;48.988;12.040;2024-03-17T03:46:03;23.45;;;9.55;;
84144;SDS011;74264;48.988;12.040;2024-03-17T03:48:29;24.45;;;9.07;;
84144;SDS011;74264;48.988;12.040;2024-03-17T03:50:55;11.18;;;7.03;;
84144;SDS011;74264;48.988;12.040;2024-03-17T03:53:20;38.40;;;11.93;;
84144;SDS011;74264;48.988;12.040;2024-03-17T03:55:46;14.77;;;7.82;;
84144;SDS011;74264;48.988;12.040;2024-03-17T03:58:12;17.27;;;8.02;;
84144;SDS011;74264;48.988;12.040;2024-03-17T04:00:38;24.55;;;10.60;;
84144;SDS011;74264;48.988;12.040;2024-03-17T04:03:04;33.83;;;10.35;;
84144;SDS011;74264;48.988;12.040;2024-03-17T04:05:31;66.10;;;11.38;;
84144;SDS011;74264;48.988;12.040;2024-03-17T04:07:57;174.15;;;17.75;;
84144;SDS011;74264;48.988;12.040;2024-03-17T04:10:23;313.17;;;18.88;;
84144;SDS011;74264;48.988;12.040;2024-03-17T04:12:50;547.65;;;30.88;;
84144;SDS011;74264;48.988;12.040;2024-03-17T04:15:16;539.92;;;25.67;;
84144;SDS011;74264;48.988;12.040;2024-03-17T04:17:42;703.30;;;33.25;;
84144;SDS011;74264;48.988;12.040;2024-03-17T04:20:08;934.28;;;39.83;;
84144;SDS011;74264;48.988;12.040;2024-03-17T04:22:36;797.75;;;33.33;;
84144;SDS011;74264;48.988;12.040;2024-03-17T04:25:01;621.95;;;24.50;;
84144;SDS011;74264;48.988;12.040;2024-03-17T04:27:29;604.10;;;25.02;;
84144;SDS011;74264;48.988;12.040;2024-03-17T04:29:55;427.45;;;19.08;;
84144;SDS011;74264;48.988;12.040;2024-03-17T04:32:22;737.90;;;30.38;;
84144;SDS011;74264;48.988;12.040;2024-03-17T04:34:49;685.70;;;34.35;;
84144;SDS011;74264;48.988;12.040;2024-03-17T04:37:14;397.95;;;17.42;;
84144;SDS011;74264;48.988;12.040;2024-03-17T04:39:44;688.22;;;28.65;;
84144;SDS011;74264;48.988;12.040;2024-03-17T04:42:12;656.60;;;28.35;;
84144;SDS011;74264;48.988;12.040;2024-03-17T04:44:41;686.15;;;28.95;;
84144;SDS011;74264;48.988;12.040;2024-03-17T04:47:07;701.08;;;34.17;;
84144;SDS011;74264;48.988;12.040;2024-03-17T04:49:41;607.53;;;25.38;;
84144;SDS011;74264;48.988;12.040;2024-03-17T04:52:08;343.17;;;15.10;;
84144;SDS011;74264;48.988;12.040;2024-03-17T04:54:38;715.70;;;33.25;;
84144;SDS011;74264;48.988;12.040;2024-03-17T04:57:04;428.05;;;21.15;;
84144;SDS011;74264;48.988;12.040;2024-03-17T04:59:29;490.15;;;27.02;;
84144;SDS011;74264;48.988;12.040;2024-03-17T05:01:55;96.50;;;14.07;;
84144;SDS011;74264;48.988;12.040;2024-03-17T05:04:21;25.50;;;9.38;;
84144;SDS011;74264;48.988;12.040;2024-03-17T05:06:48;18.90;;;8.98;;
84144;SDS011;74264;48.988;12.040;2024-03-17T05:09:15;12.85;;;7.22;;
84144;SDS011;74264;48.988;12.040;2024-03-17T05:11:41;34.40;;;9.10;;
84144;SDS011;74264;48.988;12.040;2024-03-17T05:14:07;18.10;;;8.50;;
84144;SDS011;74264;48.988;12.040;2024-03-17T05:16:33;32.22;;;9.13;;
84144;SDS011;74264;48.988;12.040;2024-03-17T05:18:59;19.73;;;7.82;;
84144;SDS011;74264;48.988;12.040;2024-03-17T05:21:25;25.98;;;8.95;;
84144;SDS011;74264;48.988;12.040;2024-03-17T05:23:55;48.50;;;10.02;;
84144;SDS011;74264;48.988;12.040;2024-03-17T05:26:24;51.08;;;8.93;;
84144;SDS011;74264;48.988;12.040;2024-03-17T05:28:49;116.28;;;10.20;;
84144;SDS011;74264;48.988;12.040;2024-03-17T05:31:15;19.35;;;7.80;;
84144;SDS011;74264;48.988;12.040;2024-03-17T05:33:43;89.60;;;11.40;;
84144;SDS011;74264;48.988;12.040;2024-03-17T05:36:09;114.07;;;13.35;;
84144;SDS011;74264;48.988;12.040;2024-03-17T05:38:35;23.10;;;9.32;;
84144;SDS011;74264;48.988;12.040;2024-03-17T05:41:01;20.02;;;8.82;;
84144;SDS011;74264;48.988;12.040;2024-03-17T05:43:28;13.20;;;8.23;;
84144;SDS011;74264;48.988;12.040;2024-03-17T05:45:58;13.38;;;7.93;;
84144;SDS011;74264;48.988;12.040;2024-03-17T05:48:26;62.53;;;14.98;;
84144;SDS011;74264;48.988;12.040;2024-03-17T05:50:52;114.57;;;13.95;;
84144;SDS011;74264;48.988;12.040;2024-03-17T05:53:18;24.55;;;9.10;;
84144;SDS011;74264;48.988;12.040;2024-03-17T05:55:45;61.33;;;13.00;;
84144;SDS011;74264;48.988;12.040;2024-03-17T05:58:11;28.40;;;9.85;;
84144;SDS011;74264;48.988;12.040;2024-03-17T06:00:37;17.60;;;9.95;;
84144;SDS011;74264;48.988;12.040;2024-03-17T06:03:04;26.10;;;9.38;;
84144;SDS011;74264;48.988;12.040;2024-03-17T06:05:37;16.13;;;9.30;;
84144;SDS011;74264;48.988;12.040;2024-03-17T06:08:06;22.08;;;9.65;;
84144;SDS011;74264;48.988;12.040;2024-03-17T06:10:34;23.63;;;9.77;;
84144;SDS011;74264;48.988;12.040;2024-03-17T06:13:01;19.90;;;10.35;;
84144;SDS011;74264;48.988;12.040;2024-03-17T06:15:27;16.80;;;9.63;;
84144;SDS011;74264;48.988;12.040;2024-03-17T06:17:53;12.15;;;9.05;;
84144;SDS011;74264;48.988;12.040;2024-03-17T06:20:20;19.35;;;9.80;;
84144;SDS011;74264;48.988;12.040;2024-03-17T06:22:47;14.15;;;8.82;;
84144;SDS011;74264;48.988;12.040;2024-03-17T06:25:13;12.20;;;7.38;;
84144;SDS011;74264;48.988;12.040;2024-03-17T06:27:39;11.50;;;6.72;;
84144;SDS011;74264;48.988;12.040;2024-03-17T06:30:04;12.15;;;7.15;;
84144;SDS011;74264;48.988;12.040;2024-03-17T06:32:34;11.50;;;6.10;;
84144;SDS011;74264;48.988;12.040;2024-03-17T06:35:03;8.70;;;4.82;;
84144;SDS011;74264;48.988;12.040;2024-03-17T06:37:29;5.93;;;5.32;;
84144;SDS011;74264;48.988;12.040;2024-03-17T06:39:54;5.28;;;4.47;;
84144;SDS011;74264;48.988;12.040;2024-03-17T06:42:20;5.82;;;5.22;;
84144;SDS011;74264;48.988;12.040;2024-03-17T06:44:46;11.57;;;6.22;;
84144;SDS011;74264;48.988;12.040;2024-03-17T06:47:11;7.28;;;5.43;;
84144;SDS011;74264;48.988;12.040;2024-03-17T06:49:37;5.97;;;4.53;;
84144;SDS011;74264;48.988;12.040;2024-03-17T06:52:03;6.93;;;5.55;;
84144;SDS011;74264;48.988;12.040;2024-03-17T06:54:29;7.30;;;5.65;;
84144;SDS011;74264;48.988;12.040;2024-03-17T06:56:54;6.97;;;4.80;;
84144;SDS011;74264;48.988;12.040;2024-03-17T06:59:20;7.80;;;5.35;;
84144;SDS011;74264;48.988;12.040;2024-03-17T07:01:49;7.43;;;5.10;;
84144;SDS011;74264;48.988;12.040;2024-03-17T07:04:15;10.57;;;6.35;;
84144;SDS011;74264;48.988;12.040;2024-03-17T07:06:42;7.70;;;5.82;;
84144;SDS011;74264;48.988;12.040;2024-03-17T07:09:07;10.43;;;5.85;;
84144;SDS011;74264;48.988;12.040;2024-03-17T07:11:34;6.00;;;5.40;;
84144;SDS011;74264;48.988;12.040;2024-03-17T07:13:59;6.95;;;5.53;;
84144;SDS011;74264;48.988;12.040;2024-03-17T07:16:25;5.43;;;4.93;;
84144;SDS011;74264;48.988;12.040;2024-03-17T07:18:51;6.00;;;5.38;;
84144;SDS011;74264;48.988;12.040;2024-03-17T07:21:18;8.90;;;5.22;;
84144;SDS011;74264;48.988;12.040;2024-03-17T07:23:47;10.23;;;5.28;;
84144;SDS011;74264;48.988;12.040;2024-03-17T07:26:13;5.03;;;4.53;;
84144;SDS011;74264;48.988;12.040;2024-03-17T07:28:39;5.22;;;4.47;;
84144;SDS011;74264;48.988;12.040;2024-03-17T07:31:06;9.63;;;5.40;;
84144;SDS011;74264;48.988;12.040;2024-03-17T07:33:34;8.70;;;4.63;;
84144;SDS011;74264;48.988;12.040;2024-03-17T07:36:00;6.13;;;4.57;;
84144;SDS011;74264;48.988;12.040;2024-03-17T07:38:27;8.80;;;5.32;;
84144;SDS011;74264;48.988;12.040;2024-03-17T07:43:24;7.70;;;5.68;;
84144;SDS011;74264;48.988;12.040;2024-03-17T07:48:45;8.80;;;5.50;;
84144;SDS011;74264;48.988;12.040;2024-03-17T07:51:14;7.15;;;5.53;;
84144;SDS011;74264;48.988;12.040;2024-03-17T07:53:44;6.35;;;4.82;;
84144;SDS011;74264;48.988;12.040;2024-03-17T07:56:13;5.57;;;4.70;;
84144;SDS011;74264;48.988;12.040;2024-03-17T07:58:40;5.45;;;5.00;;
84144;SDS011;74264;48.988;12.040;2024-03-17T08:01:10;7.75;;;5.95;;
84144;SDS011;74264;48.988;12.040;2024-03-17T08:03:38;5.95;;;5.35;;
84144;SDS011;74264;48.988;12.040;2024-03-17T08:06:05;5.88;;;5.22;;
84144;SDS011;74264;48.988;12.040;2024-03-17T08:08:32;6.65;;;4.97;;
84144;SDS011;74264;48.988;12.040;2024-03-17T08:10:58;5.60;;;5.07;;
84144;SDS011;74264;48.988;12.040;2024-03-17T08:13:24;8.10;;;4.93;;
84144;SDS011;74264;48.988;12.040;2024-03-17T08:15:57;7.10;;;4.70;;
84144;SDS011;74264;48.988;12.040;2024-03-17T08:18:24;4.63;;;4.20;;
84144;SDS011;74264;48.988;12.040;2024-03-17T08:20:52;5.13;;;3.28;;
84144;SDS011;74264;48.988;12.040;2024-03-17T08:23:19;3.95;;;3.13;;
84144;SDS011;74264;48.988;12.040;2024-03-17T08:25:53;4.85;;;3.28;;
84144;SDS011;74264;48.988;12.040;2024-03-17T08:28:19;4.60;;;2.55;;
84144;SDS011;74264;48.988;12.040;2024-03-17T08:33:18;3.92;;;2.47;;
84144;SDS011;74264;48.988;12.040;2024-03-17T08:35:52;3.75;;;3.00;;
84144;SDS011;74264;48.988;12.040;2024-03-17T08:38:18;3.33;;;2.30;;
84144;SDS011;74264;48.988;12.040;2024-03-17T08:40:46;2.58;;;2.20;;
84144;SDS011;74264;48.988;12.040;2024-03-17T08:43:12;7.15;;;2.28;;
84144;SDS011;74264;48.988;12.040;2024-03-17T08:45:38;5.82;;;2.33;;
84144;SDS011;74264;48.988;12.040;2024-03-17T08:48:03;4.65;;;1.83;;
84144;SDS011;74264;48.988;12.040;2024-03-17T08:50:29;5.03;;;3.03;;
84144;SDS011;74264;48.988;12.040;2024-03-17T08:52:58;8.15;;;4.57;;
84144;SDS011;74264;48.988;12.040;2024-03-17T08:55:24;1.95;;;1.85;;
84144;SDS011;74264;48.988;12.040;2024-03-17T08:57:49;5.10;;;2.00;;
84144;SDS011;74264;48.988;12.040;2024-03-17T09:00:15;2.60;;;1.83;;
84144;SDS011;74264;48.988;12.040;2024-03-17T09:02:41;2.80;;;1.90;;
84144;SDS011;74264;48.988;12.040;2024-03-17T09:05:06;4.25;;;2.50;;
84144;SDS011;74264;48.988;12.040;2024-03-17T09:07:32;2.90;;;2.10;;
84144;SDS011;74264;48.988;12.040;2024-03-17T09:09:58;5.53;;;2.08;;
84144;SDS011;74264;48.988;12.040;2024-03-17T09:12:25;3.28;;;2.03;;
84144;SDS011;74264;48.988;12.040;2024-03-17T09:14:51;5.47;;;2.20;;
84144;SDS011;74264;48.988;12.040;2024-03-17T09:17:16;3.05;;;2.13;;
84144;SDS011;74264;48.988;12.040;2024-03-17T09:19:44;4.28;;;2.15;;
84144;SDS011;74264;48.988;12.040;2024-03-17T09:22:10;2.53;;;2.08;;
84144;SDS011;74264;48.988;12.040;2024-03-17T09:24:36;2.40;;;1.80;;
84144;SDS011;74264;48.988;12.040;2024-03-17T09:27:02;5.22;;;2.70;;
84144;SDS011;74264;48.988;12.040;2024-03-17T09:29:29;2.33;;;2.13;;
84144;SDS011;74264;48.988;12.040;2024-03-17T09:31:55;2.97;;;2.28;;
84144;SDS011;74264;48.988;12.040;2024-03-17T09:34:20;4.97;;;3.13;;
84144;SDS011;74264;48.988;12.040;2024-03-17T09:36:46;6.65;;;2.72;;
84144;SDS011;74264;48.988;12.040;2024-03-17T09:39:12;3.65;;;2.67;;
84144;SDS011;74264;48.988;12.040;2024-03-17T09:41:39;5.35;;;2.72;;
84144;SDS011;74264;48.988;12.040;2024-03-17T09:44:06;7.88;;;2.80;;
84144;SDS011;74264;48.988;12.040;2024-03-17T09:46:36;3.30;;;2.63;;
84144;SDS011;74264;48.988;12.040;2024-03-17T09:49:02;4.80;;;3.10;;
84144;SDS011;74264;48.988;12.040;2024-03-17T09:51:28;9.00;;;3.67;;
84144;SDS011;74264;48.988;12.040;2024-03-17T09:53:53;3.70;;;3.13;;
84144;SDS011;74264;48.988;12.040;2024-03-17T09:56:19;4.55;;;2.95;;
84144;SDS011;74264;48.988;12.040;2024-03-17T10:01:12;2.85;;;2.65;;
84144;SDS011;74264;48.988;12.040;2024-03-17T10:03:48;4.05;;;2.58;;
84144;SDS011;74264;48.988;12.040;2024-03-17T10:06:17;6.22;;;2.85;;
84144;SDS011;74264;48.988;12.040;2024-03-17T10:08:45;4.35;;;3.15;;
84144;SDS011;74264;48.988;12.040;2024-03-17T10:11:12;2.58;;;2.38;;
84144;SDS011;74264;48.988;12.040;2024-03-17T10:13:43;3.42;;;2.92;;
84144;SDS011;74264;48.988;12.040;2024-03-17T10:16:23;5.72;;;2.70;;
84144;SDS011;74264;48.988;12.040;2024-03-17T10:18:50;3.67;;;2.80;;
84144;SDS011;74264;48.988;12.040;2024-03-17T10:21:26;5.63;;;2.97;;
84144;SDS011;74264;48.988;12.040;2024-03-17T10:24:11;3.53;;;2.67;;
84144;SDS011;74264;48.988;12.040;2024-03-17T10:26:47;3.70;;;2.78;;
84144;SDS011;74264;48.988;12.040;2024-03-17T10:31:48;4.50;;;3.25;;
84144;SDS011;74264;48.988;12.040;2024-03-17T10:34:14;7.82;;;3.70;;
84144;SDS011;74264;48.988;12.040;2024-03-17T10:36:45;3.17;;;2.63;;
84144;SDS011;74264;48.988;12.040;2024-03-17T10:39:25;4.72;;;2.83;;
84144;SDS011;74264;48.988;12.040;2024-03-17T10:42:02;5.15;;;3.85;;
84144;SDS011;74264;48.988;12.040;2024-03-17T10:44:30;3.72;;;3.13;;
84144;SDS011;74264;48.988;12.040;2024-03-17T10:46:57;2.95;;;2.75;;
84144;SDS011;74264;48.988;12.040;2024-03-17T10:49:30;3.58;;;3.13;;
84144;SDS011;74264;48.988;12.040;2024-03-17T10:52:01;5.57;;;3.05;;
84144;SDS011;74264;48.988;12.040;2024-03-17T10:54:29;5.28;;;3.20;;
84144;SDS011;74264;48.988;12.040;2024-03-17T10:56:56;4.53;;;3.17;;
84144;SDS011;74264;48.988;12.040;2024-03-17T10:59:39;3.40;;;2.95;;
84144;SDS011;74264;48.988;12.040;2024-03-17T11:04:40;5.68;;;3.45;;
84144;SDS011;74264;48.988;12.040;2024-03-17T11:07:07;4.03;;;3.42;;
84144;SDS011;74264;48.988;12.040;2024-03-17T11:09:46;3.25;;;3.03;;
84144;SDS011;74264;48.988;12.040;2024-03-17T11:18:28;3.08;;;2.83;;
84144;SDS011;74264;48.988;12.040;2024-03-17T11:21:00;3.40;;;3.10;;
84144;SDS011;74264;48.988;12.040;2024-03-17T11:23:59;4.07;;;3.55;;
84144;SDS011;74264;48.988;12.040;2024-03-17T11:26:30;5.93;;;3.35;;
84144;SDS011;74264;48.988;12.040;2024-03-17T11:28:58;3.10;;;2.80;;
84144;SDS011;74264;48.988;12.040;2024-03-17T11:31:33;4.65;;;3.13;;
84144;SDS011;74264;48.988;12.040;2024-03-17T11:34:01;2.83;;;2.63;;
84144;SDS011;74264;48.988;12.040;2024-03-17T11:36:30;3.42;;;3.13;;
84144;SDS011;74264;48.988;12.040;2024-03-17T11:41:41;6.20;;;3.53;;
84144;SDS011;74264;48.988;12.040;2024-03-17T11:46:52;6.72;;;3.47;;
84144;SDS011;74264;48.988;12.040;2024-03-17T11:51:46;5.40;;;3.30;;
84144;SDS011;74264;48.988;12.040;2024-03-17T11:54:13;3.85;;;3.42;;
84144;SDS011;74264;48.988;12.040;2024-03-17T11:56:44;4.25;;;2.88;;
84144;SDS011;74264;48.988;12.040;2024-03-17T11:59:14;5.10;;;3.10;;
84144;SDS011;74264;48.988;12.040;2024-03-17T12:01:43;3.75;;;2.97;;
84144;SDS011;74264;48.988;12.040;2024-03-17T12:04:11;3.58;;;3.00;;
84144;SDS011;74264;48.988;12.040;2024-03-17T12:06:38;6.22;;;3.00;;
84144;SDS011;74264;48.988;12.040;2024-03-17T12:09:19;4.10;;;3.38;;
84144;SDS011;74264;48.988;12.040;2024-03-17T12:11:51;3.40;;;3.10;;
84144;SDS011;74264;48.988;12.040;2024-03-17T12:14:24;3.58;;;3.28;;
84144;SDS011;74264;48.988;12.040;2024-03-17T12:16:51;4.40;;;2.83;;
84144;SDS011;74264;48.988;12.040;2024-03-17T12:19:22;6.03;;;3.20;;
84144;SDS011;74264;48.988;12.040;2024-03-17T12:21:49;3.88;;;3.25;;
84144;SDS011;74264;48.988;12.040;2024-03-17T12:26:47;4.90;;;3.75;;
84144;SDS011;74264;48.988;12.040;2024-03-17T12:29:26;4.53;;;3.28;;
84144;SDS011;74264;48.988;12.040;2024-03-17T12:32:03;7.45;;;3.20;;
84144;SDS011;74264;48.988;12.040;2024-03-17T12:34:33;5.18;;;3.22;;
84144;SDS011;74264;48.988;12.040;2024-03-17T12:36:59;3.85;;;3.25;;
84144;SDS011;74264;48.988;12.040;2024-03-17T12:39:26;5.07;;;2.83;;
84144;SDS011;74264;48.988;12.040;2024-03-17T12:44:49;6.97;;;3.20;;
84144;SDS011;74264;48.988;12.040;2024-03-17T12:47:16;4.53;;;2.88;;
84144;SDS011;74264;48.988;12.040;2024-03-17T12:49:45;3.15;;;2.85;;
84144;SDS011;74264;48.988;12.040;2024-03-17T12:52:19;4.55;;;3.35;;
84144;SDS011;74264;48.988;12.040;2024-03-17T12:57:48;3.22;;;2.80;;
84144;SDS011;74264;48.988;12.040;2024-03-17T13:00:33;3.03;;;2.83;;
84144;SDS011;74264;48.988;12.040;2024-03-17T13:03:00;3.80;;;2.92;;
84144;SDS011;74264;48.988;12.040;2024-03-17T13:05:30;3.65;;;2.78;;
84144;SDS011;74264;48.988;12.040;2024-03-17T13:07:57;6.15;;;3.22;;
84144;SDS011;74264;48.988;12.040;2024-03-17T13:10:24;3.22;;;2.45;;
84144;SDS011;74264;48.988;12.040;2024-03-17T13:13:00;4.50;;;3.10;;
84144;SDS011;74264;48.988;12.040;2024-03-17T13:15:30;3.30;;;3.00;;
84144;SDS011;74264;48.988;12.040;2024-03-17T13:17:56;4.45;;;2.58;;
84144;SDS011;74264;48.988;12.040;2024-03-17T13:20:25;3.42;;;2.95;;
84144;SDS011;74264;48.988;12.040;2024-03-17T13:22:51;4.13;;;2.75;;
84144;SDS011;74264;48.988;12.040;2024-03-17T13:25:17;4.18;;;2.58;;
84144;SDS011;74264;48.988;12.040;2024-03-17T13:27:46;3.35;;;2.58;;
84144;SDS011;74264;48.988;12.040;2024-03-17T13:30:13;5.97;;;2.80;;
84144;SDS011;74264;48.988;12.040;2024-03-17T13:32:40;4.07;;;2.60;;
84144;SDS011;74264;48.988;12.040;2024-03-17T13:35:14;3.65;;;2.35;;
84144;SDS011;74264;48.988;12.040;2024-03-17T13:37:41;2.60;;;2.17;;
84144;SDS011;74264;48.988;12.040;2024-03-17T13:40:07;4.22;;;2.40;;
84144;SDS011;74264;48.988;12.040;2024-03-17T13:42:35;2.97;;;2.30;;
84144;SDS011;74264;48.988;12.040;2024-03-17T13:45:00;4.28;;;2.25;;
84144;SDS011;74264;48.988;12.040;2024-03-17T13:47:26;5.22;;;2.63;;
84144;SDS011;74264;48.988;12.040;2024-03-17T13:49:52;2.67;;;2.30;;
84144;SDS011;74264;48.988;12.040;2024-03-17T13:52:17;3.65;;;2.50;;
84144;SDS011;74264;48.988;12.040;2024-03-17T13:54:43;3.03;;;2.67;;
84144;SDS011;74264;48.988;12.040;2024-03-17T13:57:09;2.97;;;2.20;;
84144;SDS011;74264;48.988;12.040;2024-03-17T13:59:34;2.28;;;2.08;;
84144;SDS011;74264;48.988;12.040;2024-03-17T14:02:01;2.25;;;1.95;;
84144;SDS011;74264;48.988;12.040;2024-03-17T14:04:27;2.38;;;2.08;;
84144;SDS011;74264;48.988;12.040;2024-03-17T14:06:53;5.18;;;2.13;;
84144;SDS011;74264;48.988;12.040;2024-03-17T14:09:18;3.65;;;2.42;;
84144;SDS011;74264;48.988;12.040;2024-03-17T14:11:44;4.95;;;2.03;;
84144;SDS011;74264;48.988;12.040;2024-03-17T14:14:11;3.22;;;2.10;;
84144;SDS011;74264;48.988;12.040;2024-03-17T14:16:37;2.00;;;1.90;;
84144;SDS011;74264;48.988;12.040;2024-03-17T14:19:03;2.13;;;1.90;;
84144;SDS011;74264;48.988;12.040;2024-03-17T14:21:29;2.38;;;2.15;;
84144;SDS011;74264;48.988;12.040;2024-03-17T14:23:55;4.63;;;1.90;;
84144;SDS011;74264;48.988;12.040;2024-03-17T14:26:21;2.90;;;1.92;;
84144;SDS011;74264;48.988;12.040;2024-03-17T14:28:48;4.45;;;2.35;;
84144;SDS011;74264;48.988;12.040;2024-03-17T14:31:16;5.82;;;1.90;;
84144;SDS011;74264;48.988;12.040;2024-03-17T14:33:43;1.92;;;1.70;;
84144;SDS011;74264;48.988;12.040;2024-03-17T14:36:09;5.13;;;2.00;;
84144;SDS011;74264;48.988;12.040;2024-03-17T14:38:35;6.15;;;2.08;;
84144;SDS011;74264;48.988;12.040;2024-03-17T14:41:01;3.33;;;1.83;;
84144;SDS011;74264;48.988;12.040;2024-03-17T14:43:29;1.63;;;1.52;;
84144;SDS011;74264;48.988;12.040;2024-03-17T14:45:55;2.60;;;1.73;;
84144;SDS011;74264;48.988;12.040;2024-03-17T14:48:21;3.38;;;2.17;;
84144;SDS011;74264;48.988;12.040;2024-03-17T14:50:47;4.60;;;1.73;;
84144;SDS011;74264;48.988;12.040;2024-03-17T14:53:12;1.60;;;1.50;;
84144;SDS011;74264;48.988;12.040;2024-03-17T14:55:38;2.65;;;1.73;;
84144;SDS011;74264;48.988;12.040;2024-03-17T14:58:03;4.15;;;1.90;;
84144;SDS011;74264;48.988;12.040;2024-03-17T15:00:32;4.10;;;1.70;;
84144;SDS011;74264;48.988;12.040;2024-03-17T15:02:57;2.90;;;1.70;;
84144;SDS011;74264;48.988;12.040;2024-03-17T15:05:23;2.17;;;1.40;;